sensor_id;sensor_type;location;lat;lon;timestamp;pressure;altitude;pressure_sealevel;temperature;humidity
79645;BME280;69117;47.148;18.954;2023-06-05T00:02:19;100880.13;;;16.53;76.67
79645;BME280;69117;47.148;18.954;2023-06-05T00:05:20;100883.63;;;16.53;77.58
79645;BME280;69117;47.148;18.954;2023-06-05T00:08:22;100891.13;;;16.49;78.43
79645;BME280;69117;47.148;18.954;2023-06-05T00:11:24;100892.44;;;16.45;78.29
79645;BME280;69117;47.148;18.954;2023-06-05T00:14:26;100885.63;;;16.43;79.44
79645;BME280;69117;47.148;18.954;2023-06-05T00:17:28;100885.13;;;16.39;80.00
79645;BME280;69117;47.148;18.954;2023-06-05T00:20:32;100888.81;;;16.38;79.40
79645;BME280;69117;47.148;18.954;2023-06-05T00:23:33;100870.53;;;16.19;79.73
79645;BME280;69117;47.148;18.954;2023-06-05T00:26:35;100883.00;;;16.26;79.17
79645;BME280;69117;47.148;18.954;2023-06-05T00:29:36;100890.97;;;16.18;81.07
79645;BME280;69117;47.148;18.954;2023-06-05T00:32:38;100888.66;;;16.15;82.08
79645;BME280;69117;47.148;18.954;2023-06-05T00:35:40;100886.00;;;16.15;81.73
79645;BME280;69117;47.148;18.954;2023-06-05T00:38:41;100888.69;;;16.07;80.97
79645;BME280;69117;47.148;18.954;2023-06-05T00:41:43;100891.84;;;16.11;81.89
79645;BME280;69117;47.148;18.954;2023-06-05T00:44:46;100897.31;;;16.09;81.74
79645;BME280;69117;47.148;18.954;2023-06-05T00:47:49;100886.84;;;15.99;81.78
79645;BME280;69117;47.148;18.954;2023-06-05T00:50:52;100895.81;;;16.07;83.84
79645;BME280;69117;47.148;18.954;2023-06-05T00:53:54;100885.00;;;16.08;84.28
79645;BME280;69117;47.148;18.954;2023-06-05T00:56:56;100880.84;;;16.14;83.57
79645;BME280;69117;47.148;18.954;2023-06-05T00:59:57;100883.16;;;16.09;83.61
79645;BME280;69117;47.148;18.954;2023-06-05T01:03:00;100883.34;;;16.07;84.53
79645;BME280;69117;47.148;18.954;2023-06-05T01:06:03;100880.84;;;16.06;84.31
79645;BME280;69117;47.148;18.954;2023-06-05T01:09:04;100885.84;;;16.09;83.92
79645;BME280;69117;47.148;18.954;2023-06-05T01:12:30;100884.53;;;16.13;83.86
79645;BME280;69117;47.148;18.954;2023-06-05T01:15:34;100888.50;;;16.17;84.05
79645;BME280;69117;47.148;18.954;2023-06-05T01:18:37;100878.84;;;16.16;83.34
79645;BME280;69117;47.148;18.954;2023-06-05T01:21:47;100878.00;;;16.15;83.93
79645;BME280;69117;47.148;18.954;2023-06-05T01:24:49;100885.16;;;16.15;84.26
79645;BME280;69117;47.148;18.954;2023-06-05T01:31:17;100884.84;;;16.10;83.51
79645;BME280;69117;47.148;18.954;2023-06-05T01:34:21;100888.84;;;16.06;83.27
79645;BME280;69117;47.148;18.954;2023-06-05T01:37:24;100895.00;;;16.06;83.24
79645;BME280;69117;47.148;18.954;2023-06-05T01:40:27;100898.00;;;16.03;83.80
79645;BME280;69117;47.148;18.954;2023-06-05T01:43:32;100900.16;;;15.99;85.22
79645;BME280;69117;47.148;18.954;2023-06-05T01:46:34;100891.47;;;15.97;84.99
79645;BME280;69117;47.148;18.954;2023-06-05T01:49:37;100893.81;;;15.84;85.55
79645;BME280;69117;47.148;18.954;2023-06-05T01:52:39;100887.84;;;15.98;84.35
79645;BME280;69117;47.148;18.954;2023-06-05T01:55:41;100884.69;;;15.95;84.63
79645;BME280;69117;47.148;18.954;2023-06-05T01:58:43;100872.84;;;15.81;83.39
79645;BME280;69117;47.148;18.954;2023-06-05T02:01:45;100879.81;;;15.82;51.93
79645;BME280;69117;47.148;18.954;2023-06-05T02:04:48;100889.16;;;15.86;41.31
79645;BME280;69117;47.148;18.954;2023-06-05T02:07:50;100888.50;;;15.84;40.11
79645;BME280;69117;47.148;18.954;2023-06-05T02:10:55;100884.19;;;15.83;34.57
79645;BME280;69117;47.148;18.954;2023-06-05T02:13:57;100883.16;;;15.76;13.42
79645;BME280;69117;47.148;18.954;2023-06-05T02:17:04;100876.00;;;15.68;4.14
79645;BME280;69117;47.148;18.954;2023-06-05T02:20:08;100889.81;;;15.72;0.00
79645;BME280;69117;47.148;18.954;2023-06-05T02:23:11;100884.16;;;15.75;0.00
79645;BME280;69117;47.148;18.954;2023-06-05T02:26:13;100878.69;;;15.76;0.00
79645;BME280;69117;47.148;18.954;2023-06-05T02:29:14;100874.50;;;15.74;0.00
79645;BME280;69117;47.148;18.954;2023-06-05T02:32:16;100888.16;;;15.79;0.00
79645;BME280;69117;47.148;18.954;2023-06-05T02:35:18;100878.66;;;15.68;0.00
79645;BME280;69117;47.148;18.954;2023-06-05T02:38:19;100865.78;;;15.64;0.00
79645;BME280;69117;47.148;18.954;2023-06-05T02:41:22;100862.16;;;15.65;0.00
79645;BME280;69117;47.148;18.954;2023-06-05T02:44:23;100866.19;;;15.77;0.00
79645;BME280;69117;47.148;18.954;2023-06-05T02:47:25;100860.03;;;15.76;0.00
79645;BME280;69117;47.148;18.954;2023-06-05T02:50:27;100857.69;;;15.82;0.00
79645;BME280;69117;47.148;18.954;2023-06-05T02:53:28;100864.84;;;15.81;0.00
79645;BME280;69117;47.148;18.954;2023-06-05T02:56:30;100858.34;;;15.84;0.00
79645;BME280;69117;47.148;18.954;2023-06-05T02:59:32;100859.53;;;15.81;0.00
79645;BME280;69117;47.148;18.954;2023-06-05T03:02:33;100865.19;;;15.86;0.00
79645;BME280;69117;47.148;18.954;2023-06-05T03:05:37;100861.84;;;15.76;0.00
79645;BME280;69117;47.148;18.954;2023-06-05T03:08:39;100864.16;;;15.79;0.00
79645;BME280;69117;47.148;18.954;2023-06-05T03:11:42;100859.16;;;15.76;0.00
79645;BME280;69117;47.148;18.954;2023-06-05T03:14:44;100868.00;;;15.85;0.00
79645;BME280;69117;47.148;18.954;2023-06-05T03:17:45;100863.34;;;15.87;0.00
79645;BME280;69117;47.148;18.954;2023-06-05T03:20:47;100869.16;;;15.82;0.00
79645;BME280;69117;47.148;18.954;2023-06-05T03:23:51;100862.50;;;15.94;0.00
79645;BME280;69117;47.148;18.954;2023-06-05T03:26:53;100874.03;;;15.95;0.00
79645;BME280;69117;47.148;18.954;2023-06-05T03:29:54;100866.19;;;16.01;0.00
79645;BME280;69117;47.148;18.954;2023-06-05T03:32:57;100874.50;;;16.07;0.00
79645;BME280;69117;47.148;18.954;2023-06-05T03:35:59;100871.19;;;16.13;0.00
79645;BME280;69117;47.148;18.954;2023-06-05T03:39:01;100856.84;;;16.14;0.00
79645;BME280;69117;47.148;18.954;2023-06-05T03:42:03;100870.19;;;16.22;0.00
79645;BME280;69117;47.148;18.954;2023-06-05T03:45:05;100860.84;;;16.18;0.00
79645;BME280;69117;47.148;18.954;2023-06-05T03:48:07;100863.16;;;16.29;0.00
79645;BME280;69117;47.148;18.954;2023-06-05T03:51:10;100871.19;;;16.13;0.00
79645;BME280;69117;47.148;18.954;2023-06-05T03:54:12;100877.31;;;16.21;0.00
79645;BME280;69117;47.148;18.954;2023-06-05T03:57:14;100871.31;;;16.27;0.00
79645;BME280;69117;47.148;18.954;2023-06-05T04:00:17;100880.47;;;16.41;0.00
79645;BME280;69117;47.148;18.954;2023-06-05T04:03:19;100875.97;;;16.42;0.00
79645;BME280;69117;47.148;18.954;2023-06-05T04:06:22;100885.81;;;16.41;0.00
79645;BME280;69117;47.148;18.954;2023-06-05T04:09:24;100888.13;;;16.53;0.00
79645;BME280;69117;47.148;18.954;2023-06-05T04:12:25;100892.75;;;16.67;0.00
79645;BME280;69117;47.148;18.954;2023-06-05T04:15:28;100876.78;;;16.59;0.00
79645;BME280;69117;47.148;18.954;2023-06-05T04:18:29;100882.41;;;16.72;0.00
79645;BME280;69117;47.148;18.954;2023-06-05T04:21:32;100891.41;;;16.79;0.00
79645;BME280;69117;47.148;18.954;2023-06-05T04:24:35;100897.88;;;16.85;0.00
79645;BME280;69117;47.148;18.954;2023-06-05T04:27:38;100892.06;;;16.81;0.00
79645;BME280;69117;47.148;18.954;2023-06-05T04:30:40;100894.25;;;16.86;0.00
79645;BME280;69117;47.148;18.954;2023-06-05T04:33:41;100897.19;;;16.91;0.00
79645;BME280;69117;47.148;18.954;2023-06-05T04:36:44;100887.38;;;16.91;0.00
79645;BME280;69117;47.148;18.954;2023-06-05T04:39:45;100893.81;;;17.05;0.00
79645;BME280;69117;47.148;18.954;2023-06-05T04:42:47;100891.81;;;17.07;0.00
79645;BME280;69117;47.148;18.954;2023-06-05T04:45:49;100896.59;;;17.20;0.00
79645;BME280;69117;47.148;18.954;2023-06-05T04:48:51;100890.28;;;17.13;0.00
79645;BME280;69117;47.148;18.954;2023-06-05T04:51:59;100886.03;;;17.27;0.00
79645;BME280;69117;47.148;18.954;2023-06-05T04:55:01;100895.03;;;17.34;0.00
79645;BME280;69117;47.148;18.954;2023-06-05T04:58:03;100892.03;;;17.29;0.00
79645;BME280;69117;47.148;18.954;2023-06-05T05:01:05;100876.81;;;17.37;0.00
79645;BME280;69117;47.148;18.954;2023-06-05T05:04:08;100880.31;;;17.38;0.00
79645;BME280;69117;47.148;18.954;2023-06-05T05:07:10;100890.31;;;17.36;0.00
79645;BME280;69117;47.148;18.954;2023-06-05T05:10:16;100896.16;;;17.39;0.00
79645;BME280;69117;47.148;18.954;2023-06-05T05:13:18;100893.41;;;17.56;0.00
79645;BME280;69117;47.148;18.954;2023-06-05T05:16:20;100890.97;;;17.69;0.00
79645;BME280;69117;47.148;18.954;2023-06-05T05:19:23;100888.59;;;17.74;0.00
79645;BME280;69117;47.148;18.954;2023-06-05T05:22:25;100895.03;;;17.88;0.00
79645;BME280;69117;47.148;18.954;2023-06-05T05:25:27;100892.91;;;17.75;0.00
79645;BME280;69117;47.148;18.954;2023-06-05T05:28:29;100892.41;;;18.03;0.00
79645;BME280;69117;47.148;18.954;2023-06-05T05:31:31;100901.03;;;18.13;0.00
79645;BME280;69117;47.148;18.954;2023-06-05T05:34:33;100890.13;;;18.52;0.00
79645;BME280;69117;47.148;18.954;2023-06-05T05:37:35;100886.00;;;18.27;0.00
79645;BME280;69117;47.148;18.954;2023-06-05T05:40:37;100891.91;;;18.75;0.00
79645;BME280;69117;47.148;18.954;2023-06-05T05:43:38;100892.06;;;19.03;0.00
79645;BME280;69117;47.148;18.954;2023-06-05T05:46:40;100891.25;;;19.03;0.00
79645;BME280;69117;47.148;18.954;2023-06-05T05:49:42;100891.91;;;19.41;0.00
79645;BME280;69117;47.148;18.954;2023-06-05T05:52:44;100892.25;;;19.16;0.00
79645;BME280;69117;47.148;18.954;2023-06-05T05:55:46;100885.88;;;19.03;0.00
79645;BME280;69117;47.148;18.954;2023-06-05T05:58:47;100878.81;;;19.31;0.00
79645;BME280;69117;47.148;18.954;2023-06-05T06:01:49;100875.44;;;19.22;0.00
79645;BME280;69117;47.148;18.954;2023-06-05T06:04:51;100876.00;;;19.39;0.00
79645;BME280;69117;47.148;18.954;2023-06-05T06:07:53;100872.59;;;19.45;0.00
79645;BME280;69117;47.148;18.954;2023-06-05T06:10:54;100874.31;;;19.53;0.00
79645;BME280;69117;47.148;18.954;2023-06-05T06:13:56;100879.88;;;19.52;0.00
79645;BME280;69117;47.148;18.954;2023-06-05T06:16:58;100875.19;;;19.60;0.00
79645;BME280;69117;47.148;18.954;2023-06-05T06:19:59;100880.91;;;19.72;0.00
79645;BME280;69117;47.148;18.954;2023-06-05T06:23:02;100878.75;;;19.61;0.00
79645;BME280;69117;47.148;18.954;2023-06-05T06:26:07;100880.41;;;19.83;0.00
79645;BME280;69117;47.148;18.954;2023-06-05T06:29:09;100882.56;;;20.16;0.00
79645;BME280;69117;47.148;18.954;2023-06-05T06:32:10;100883.34;;;20.66;0.00
79645;BME280;69117;47.148;18.954;2023-06-05T06:35:12;100879.22;;;20.64;0.00
79645;BME280;69117;47.148;18.954;2023-06-05T06:38:16;100898.38;;;20.95;0.00
79645;BME280;69117;47.148;18.954;2023-06-05T06:41:18;100890.88;;;20.84;0.00
79645;BME280;69117;47.148;18.954;2023-06-05T06:44:20;100886.59;;;20.96;0.00
79645;BME280;69117;47.148;18.954;2023-06-05T06:47:22;100885.00;;;21.09;0.00
79645;BME280;69117;47.148;18.954;2023-06-05T06:50:26;100887.53;;;21.17;0.00
79645;BME280;69117;47.148;18.954;2023-06-05T06:53:27;100890.19;;;21.10;0.00
79645;BME280;69117;47.148;18.954;2023-06-05T06:56:29;100892.44;;;21.00;0.00
79645;BME280;69117;47.148;18.954;2023-06-05T06:59:31;100891.06;;;21.24;0.00
79645;BME280;69117;47.148;18.954;2023-06-05T07:02:32;100898.69;;;21.20;0.00
79645;BME280;69117;47.148;18.954;2023-06-05T07:05:34;100889.38;;;21.10;0.00
79645;BME280;69117;47.148;18.954;2023-06-05T07:08:39;100897.06;;;21.26;0.00
79645;BME280;69117;47.148;18.954;2023-06-05T07:11:41;100899.78;;;21.33;0.00
79645;BME280;69117;47.148;18.954;2023-06-05T07:14:43;100909.97;;;21.37;0.00
79645;BME280;69117;47.148;18.954;2023-06-05T07:17:44;100908.59;;;21.68;0.00
79645;BME280;69117;47.148;18.954;2023-06-05T07:20:46;100903.69;;;21.30;0.00
79645;BME280;69117;47.148;18.954;2023-06-05T07:23:48;100903.38;;;21.40;0.00
79645;BME280;69117;47.148;18.954;2023-06-05T07:26:58;100915.22;;;21.65;0.00
79645;BME280;69117;47.148;18.954;2023-06-05T07:30:01;100915.44;;;21.77;0.00
79645;BME280;69117;47.148;18.954;2023-06-05T07:33:03;100911.34;;;21.88;0.00
79645;BME280;69117;47.148;18.954;2023-06-05T07:36:10;100909.47;;;21.88;0.00
79645;BME280;69117;47.148;18.954;2023-06-05T07:39:15;100908.41;;;21.76;0.00
79645;BME280;69117;47.148;18.954;2023-06-05T07:42:17;100904.69;;;21.70;0.00
79645;BME280;69117;47.148;18.954;2023-06-05T07:45:19;100910.47;;;21.87;0.00
79645;BME280;69117;47.148;18.954;2023-06-05T07:48:21;100916.25;;;21.64;0.00
79645;BME280;69117;47.148;18.954;2023-06-05T07:51:22;100908.34;;;21.49;0.00
79645;BME280;69117;47.148;18.954;2023-06-05T07:54:24;100907.19;;;21.79;0.00
79645;BME280;69117;47.148;18.954;2023-06-05T07:57:26;100916.44;;;21.63;0.00
79645;BME280;69117;47.148;18.954;2023-06-05T08:00:29;100905.50;;;21.71;0.00
79645;BME280;69117;47.148;18.954;2023-06-05T08:03:30;100919.41;;;22.14;0.00
79645;BME280;69117;47.148;18.954;2023-06-05T08:06:33;100916.53;;;22.36;0.00
79645;BME280;69117;47.148;18.954;2023-06-05T08:09:35;100916.31;;;22.44;0.00
79645;BME280;69117;47.148;18.954;2023-06-05T08:12:40;100906.97;;;22.60;0.00
79645;BME280;69117;47.148;18.954;2023-06-05T08:15:41;100903.88;;;22.63;0.00
79645;BME280;69117;47.148;18.954;2023-06-05T08:18:45;100912.50;;;22.92;0.00
79645;BME280;69117;47.148;18.954;2023-06-05T08:21:52;100906.63;;;23.21;0.00
79645;BME280;69117;47.148;18.954;2023-06-05T08:24:55;100913.34;;;22.99;61.83
79645;BME280;69117;47.148;18.954;2023-06-05T08:27:58;100907.91;;;23.12;64.85
79645;BME280;69117;47.148;18.954;2023-06-05T08:31:00;100894.66;;;23.49;64.45
79645;BME280;69117;47.148;18.954;2023-06-05T08:34:02;100883.91;;;23.81;62.68
79645;BME280;69117;47.148;18.954;2023-06-05T08:37:04;100900.16;;;23.67;63.35
79645;BME280;69117;47.148;18.954;2023-06-05T08:40:06;100888.94;;;24.27;58.56
79645;BME280;69117;47.148;18.954;2023-06-05T08:43:13;100894.63;;;24.44;59.80
79645;BME280;69117;47.148;18.954;2023-06-05T08:46:15;100885.81;;;23.73;59.12
79645;BME280;69117;47.148;18.954;2023-06-05T08:49:19;100881.09;;;24.44;58.05
79645;BME280;69117;47.148;18.954;2023-06-05T08:52:25;100883.59;;;25.01;56.47
79645;BME280;69117;47.148;18.954;2023-06-05T08:55:29;100884.69;;;25.18;55.86
79645;BME280;69117;47.148;18.954;2023-06-05T08:58:31;100895.34;;;25.13;56.40
79645;BME280;69117;47.148;18.954;2023-06-05T09:01:33;100897.50;;;25.23;55.46
79645;BME280;69117;47.148;18.954;2023-06-05T09:04:35;100897.09;;;25.68;51.75
79645;BME280;69117;47.148;18.954;2023-06-05T09:07:37;100897.41;;;25.59;53.55
79645;BME280;69117;47.148;18.954;2023-06-05T09:10:39;100895.41;;;25.55;52.38
79645;BME280;69117;47.148;18.954;2023-06-05T09:13:46;100894.78;;;26.72;49.72
79645;BME280;69117;47.148;18.954;2023-06-05T09:16:51;100887.19;;;27.55;47.62
79645;BME280;69117;47.148;18.954;2023-06-05T09:19:53;100878.41;;;27.64;47.00
79645;BME280;69117;47.148;18.954;2023-06-05T09:22:54;100878.72;;;26.70;48.59
79645;BME280;69117;47.148;18.954;2023-06-05T09:26:00;100886.00;;;26.93;47.99
79645;BME280;69117;47.148;18.954;2023-06-05T09:29:03;100881.69;;;27.21;46.28
79645;BME280;69117;47.148;18.954;2023-06-05T09:32:16;100881.72;;;26.98;46.80
79645;BME280;69117;47.148;18.954;2023-06-05T09:35:20;100868.94;;;27.10;46.58
79645;BME280;69117;47.148;18.954;2023-06-05T09:38:26;100872.88;;;27.02;44.58
79645;BME280;69117;47.148;18.954;2023-06-05T09:41:41;100868.53;;;27.42;45.26
79645;BME280;69117;47.148;18.954;2023-06-05T09:44:58;100864.38;;;26.99;45.23
79645;BME280;69117;47.148;18.954;2023-06-05T09:48:13;100865.97;;;27.23;44.24
79645;BME280;69117;47.148;18.954;2023-06-05T09:51:16;100853.31;;;27.57;42.49
79645;BME280;69117;47.148;18.954;2023-06-05T09:54:19;100860.69;;;27.45;43.52
79645;BME280;69117;47.148;18.954;2023-06-05T09:57:24;100854.34;;;27.39;42.72
79645;BME280;69117;47.148;18.954;2023-06-05T10:00:26;100864.84;;;28.49;43.21
79645;BME280;69117;47.148;18.954;2023-06-05T10:03:30;100858.16;;;27.84;42.97
79645;BME280;69117;47.148;18.954;2023-06-05T10:06:33;100849.75;;;28.02;40.46
79645;BME280;69117;47.148;18.954;2023-06-05T10:09:35;100842.41;;;28.03;42.97
79645;BME280;69117;47.148;18.954;2023-06-05T10:12:37;100845.56;;;28.94;40.73
79645;BME280;69117;47.148;18.954;2023-06-05T10:15:40;100837.16;;;28.74;39.75
79645;BME280;69117;47.148;18.954;2023-06-05T10:18:47;100840.88;;;28.46;39.07
79645;BME280;69117;47.148;18.954;2023-06-05T10:21:50;100832.22;;;28.49;40.71
79645;BME280;69117;47.148;18.954;2023-06-05T10:24:55;100826.22;;;27.62;41.35
79645;BME280;69117;47.148;18.954;2023-06-05T10:28:18;100838.47;;;28.49;41.52
79645;BME280;69117;47.148;18.954;2023-06-05T10:31:34;100825.44;;;27.96;40.47
79645;BME280;69117;47.148;18.954;2023-06-05T10:35:01;100828.41;;;29.43;39.72
79645;BME280;69117;47.148;18.954;2023-06-05T10:38:27;100828.25;;;29.28;39.35
79645;BME280;69117;47.148;18.954;2023-06-05T10:41:29;100822.31;;;29.31;37.25
79645;BME280;69117;47.148;18.954;2023-06-05T10:44:43;100825.09;;;30.00;38.63
79645;BME280;69117;47.148;18.954;2023-06-05T10:50:49;100810.41;;;29.69;37.25
79645;BME280;69117;47.148;18.954;2023-06-05T10:53:51;100806.78;;;30.33;34.37
79645;BME280;69117;47.148;18.954;2023-06-05T10:56:57;100805.41;;;30.93;34.40
79645;BME280;69117;47.148;18.954;2023-06-05T11:00:05;100798.38;;;31.23;34.91
79645;BME280;69117;47.148;18.954;2023-06-05T11:03:12;100800.53;;;31.11;33.65
79645;BME280;69117;47.148;18.954;2023-06-05T11:06:14;100793.47;;;30.42;36.40
79645;BME280;69117;47.148;18.954;2023-06-05T11:09:16;100794.16;;;30.22;35.31
79645;BME280;69117;47.148;18.954;2023-06-05T11:12:18;100791.19;;;30.81;35.08
79645;BME280;69117;47.148;18.954;2023-06-05T11:15:42;100789.41;;;30.54;34.86
79645;BME280;69117;47.148;18.954;2023-06-05T11:18:44;100793.47;;;30.42;34.56
79645;BME280;69117;47.148;18.954;2023-06-05T11:22:06;100788.63;;;30.17;36.93
79645;BME280;69117;47.148;18.954;2023-06-05T11:28:38;100787.34;;;28.95;37.47
79645;BME280;69117;47.148;18.954;2023-06-05T11:31:43;100780.06;;;29.28;37.30
79645;BME280;69117;47.148;18.954;2023-06-05T11:34:47;100782.38;;;29.74;36.74
79645;BME280;69117;47.148;18.954;2023-06-05T11:38:10;100767.53;;;29.00;35.23
79645;BME280;69117;47.148;18.954;2023-06-05T11:41:11;100772.50;;;27.98;35.42
79645;BME280;69117;47.148;18.954;2023-06-05T11:44:14;100770.25;;;28.51;36.00
79645;BME280;69117;47.148;18.954;2023-06-05T11:47:26;100768.22;;;29.12;35.41
79645;BME280;69117;47.148;18.954;2023-06-05T11:50:30;100766.41;;;28.96;36.13
79645;BME280;69117;47.148;18.954;2023-06-05T11:53:32;100758.50;;;28.45;34.62
79645;BME280;69117;47.148;18.954;2023-06-05T11:56:34;100756.56;;;28.90;33.01
79645;BME280;69117;47.148;18.954;2023-06-05T11:59:36;100775.34;;;28.91;34.52
79645;BME280;69117;47.148;18.954;2023-06-05T12:02:39;100766.34;;;28.25;32.70
79645;BME280;69117;47.148;18.954;2023-06-05T12:05:43;100767.44;;;27.51;34.07
79645;BME280;69117;47.148;18.954;2023-06-05T12:08:44;100760.38;;;27.84;33.28
79645;BME280;69117;47.148;18.954;2023-06-05T12:11:46;100757.03;;;27.99;37.03
79645;BME280;69117;47.148;18.954;2023-06-05T12:14:48;100758.97;;;28.64;34.03
79645;BME280;69117;47.148;18.954;2023-06-05T12:17:50;100759.31;;;28.46;33.63
79645;BME280;69117;47.148;18.954;2023-06-05T12:20:52;100751.06;;;28.85;34.03
79645;BME280;69117;47.148;18.954;2023-06-05T12:24:02;100746.31;;;28.09;33.58
79645;BME280;69117;47.148;18.954;2023-06-05T12:27:06;100747.84;;;27.32;34.47
79645;BME280;69117;47.148;18.954;2023-06-05T12:30:09;100742.09;;;28.18;34.26
79645;BME280;69117;47.148;18.954;2023-06-05T12:33:11;100736.63;;;28.57;34.37
79645;BME280;69117;47.148;18.954;2023-06-05T12:36:13;100731.22;;;28.62;33.59
79645;BME280;69117;47.148;18.954;2023-06-05T12:39:14;100736.22;;;28.70;33.03
79645;BME280;69117;47.148;18.954;2023-06-05T12:42:19;100735.44;;;28.48;34.20
79645;BME280;69117;47.148;18.954;2023-06-05T12:45:22;100729.91;;;28.43;33.85
79645;BME280;69117;47.148;18.954;2023-06-05T12:48:24;100723.91;;;28.41;33.44
79645;BME280;69117;47.148;18.954;2023-06-05T12:51:26;100721.81;;;27.70;34.16
79645;BME280;69117;47.148;18.954;2023-06-05T12:54:28;100716.34;;;27.48;35.11
79645;BME280;69117;47.148;18.954;2023-06-05T12:57:32;100718.31;;;28.30;33.99
79645;BME280;69117;47.148;18.954;2023-06-05T13:00:35;100723.31;;;28.39;33.85
79645;BME280;69117;47.148;18.954;2023-06-05T13:03:37;100723.50;;;28.76;34.49
79645;BME280;69117;47.148;18.954;2023-06-05T13:06:40;100715.63;;;28.80;34.24
79645;BME280;69117;47.148;18.954;2023-06-05T13:09:42;100710.16;;;28.30;32.90
79645;BME280;69117;47.148;18.954;2023-06-05T13:12:44;100712.28;;;27.68;33.92
79645;BME280;69117;47.148;18.954;2023-06-05T13:15:46;100706.88;;;28.28;34.41
79645;BME280;69117;47.148;18.954;2023-06-05T13:18:48;100702.03;;;28.52;33.75
79645;BME280;69117;47.148;18.954;2023-06-05T13:21:51;100704.16;;;28.28;35.77
79645;BME280;69117;47.148;18.954;2023-06-05T13:24:52;100697.31;;;28.26;33.41
79645;BME280;69117;47.148;18.954;2023-06-05T13:27:54;100695.28;;;28.11;34.19
79645;BME280;69117;47.148;18.954;2023-06-05T13:30:56;100689.78;;;29.04;32.10
79645;BME280;69117;47.148;18.954;2023-06-05T13:33:58;100693.88;;;29.07;34.62
79645;BME280;69117;47.148;18.954;2023-06-05T13:36:59;100692.84;;;28.59;34.90
79645;BME280;69117;47.148;18.954;2023-06-05T13:40:14;100691.06;;;27.64;35.82
79645;BME280;69117;47.148;18.954;2023-06-05T13:43:16;100691.06;;;27.81;35.02
79645;BME280;69117;47.148;18.954;2023-06-05T13:46:18;100691.00;;;27.98;35.85
79645;BME280;69117;47.148;18.954;2023-06-05T13:49:20;100682.31;;;27.62;35.82
79645;BME280;69117;47.148;18.954;2023-06-05T13:52:22;100673.09;;;27.80;36.64
79645;BME280;69117;47.148;18.954;2023-06-05T13:55:23;100679.00;;;27.94;35.14
79645;BME280;69117;47.148;18.954;2023-06-05T13:58:25;100680.56;;;27.34;35.76
79645;BME280;69117;47.148;18.954;2023-06-05T14:01:27;100679.31;;;27.98;36.14
79645;BME280;69117;47.148;18.954;2023-06-05T14:04:28;100680.50;;;27.68;35.79
79645;BME280;69117;47.148;18.954;2023-06-05T14:07:30;100677.38;;;27.76;35.71
79645;BME280;69117;47.148;18.954;2023-06-05T14:10:48;100677.28;;;27.71;37.43
79645;BME280;69117;47.148;18.954;2023-06-05T14:13:49;100664.16;;;28.02;35.88
79645;BME280;69117;47.148;18.954;2023-06-05T14:16:51;100666.06;;;28.23;34.83
79645;BME280;69117;47.148;18.954;2023-06-05T14:19:53;100663.28;;;28.67;34.33
79645;BME280;69117;47.148;18.954;2023-06-05T14:22:59;100654.94;;;29.38;35.91
79645;BME280;69117;47.148;18.954;2023-06-05T14:26:01;100657.00;;;28.94;35.45
79645;BME280;69117;47.148;18.954;2023-06-05T14:29:03;100658.00;;;28.56;33.89
79645;BME280;69117;47.148;18.954;2023-06-05T14:32:05;100656.84;;;28.02;33.45
79645;BME280;69117;47.148;18.954;2023-06-05T14:35:12;100653.88;;;28.48;33.57
79645;BME280;69117;47.148;18.954;2023-06-05T14:38:14;100651.53;;;27.91;35.91
79645;BME280;69117;47.148;18.954;2023-06-05T14:41:15;100650.53;;;27.97;34.35
79645;BME280;69117;47.148;18.954;2023-06-05T14:44:17;100646.53;;;27.66;37.07
79645;BME280;69117;47.148;18.954;2023-06-05T14:47:24;100651.69;;;27.45;36.33
79645;BME280;69117;47.148;18.954;2023-06-05T14:50:26;100649.34;;;27.15;36.84
79645;BME280;69117;47.148;18.954;2023-06-05T14:53:28;100641.31;;;26.91;37.52
79645;BME280;69117;47.148;18.954;2023-06-05T14:56:29;100644.47;;;26.55;37.91
79645;BME280;69117;47.148;18.954;2023-06-05T14:59:31;100644.16;;;26.51;39.83
79645;BME280;69117;47.148;18.954;2023-06-05T15:02:33;100639.91;;;26.15;43.66
79645;BME280;69117;47.148;18.954;2023-06-05T15:05:34;100620.84;;;25.98;42.14
79645;BME280;69117;47.148;18.954;2023-06-05T15:08:36;100635.47;;;25.73;44.45
79645;BME280;69117;47.148;18.954;2023-06-05T15:11:38;100624.41;;;25.75;44.42
79645;BME280;69117;47.148;18.954;2023-06-05T15:14:40;100627.97;;;25.40;46.84
79645;BME280;69117;47.148;18.954;2023-06-05T15:17:41;100624.31;;;25.34;45.07
79645;BME280;69117;47.148;18.954;2023-06-05T15:20:43;100618.66;;;25.12;44.24
79645;BME280;69117;47.148;18.954;2023-06-05T15:23:45;100617.50;;;25.20;46.68
79645;BME280;69117;47.148;18.954;2023-06-05T15:26:47;100609.38;;;25.08;45.89
79645;BME280;69117;47.148;18.954;2023-06-05T15:29:49;100612.81;;;25.16;50.56
79645;BME280;69117;47.148;18.954;2023-06-05T15:32:50;100613.91;;;24.96;45.31
79645;BME280;69117;47.148;18.954;2023-06-05T15:35:52;100602.94;;;25.21;44.24
79645;BME280;69117;47.148;18.954;2023-06-05T15:38:54;100611.25;;;25.20;43.31
79645;BME280;69117;47.148;18.954;2023-06-05T15:41:56;100605.03;;;25.19;46.04
79645;BME280;69117;47.148;18.954;2023-06-05T15:45:11;100604.75;;;24.97;46.29
79645;BME280;69117;47.148;18.954;2023-06-05T15:48:14;100608.16;;;25.04;46.92
79645;BME280;69117;47.148;18.954;2023-06-05T15:51:15;100604.75;;;24.85;47.10
79645;BME280;69117;47.148;18.954;2023-06-05T15:54:17;100602.75;;;25.04;46.21
79645;BME280;69117;47.148;18.954;2023-06-05T15:57:39;100606.75;;;25.02;44.67
79645;BME280;69117;47.148;18.954;2023-06-05T16:00:42;100600.06;;;25.04;45.61